sensor_id;sensor_type;location;lat;lon;timestamp;pressure;altitude;pressure_sealevel;temperature;humidity
34674;BME280;20879;55.668;37.858;2022-09-27T00:00:07;99443.88;;;4.87;100.00
34674;BME280;20879;55.668;37.858;2022-09-27T00:02:40;99439.56;;;4.76;100.00
34674;BME280;20879;55.668;37.858;2022-09-27T00:05:10;99445.56;;;4.73;100.00
34674;BME280;20879;55.668;37.858;2022-09-27T00:07:40;99452.38;;;4.65;100.00
34674;BME280;20879;55.668;37.858;2022-09-27T00:10:16;99454.91;;;4.57;100.00
34674;BME280;20879;55.668;37.858;2022-09-27T00:12:45;99446.31;;;4.50;100.00
34674;BME280;20879;55.668;37.858;2022-09-27T00:15:16;99452.28;;;4.49;100.00
34674;BME280;20879;55.668;37.858;2022-09-27T00:17:46;99452.28;;;4.48;100.00
34674;BME280;20879;55.668;37.858;2022-09-27T00:20:18;99450.53;;;4.42;100.00
34674;BME280;20879;55.668;37.858;2022-09-27T00:22:48;99456.50;;;4.35;100.00
34674;BME280;20879;55.668;37.858;2022-09-27T00:25:19;99443.59;;;4.26;100.00
34674;BME280;20879;55.668;37.858;2022-09-27T00:27:48;99458.97;;;4.23;100.00
34674;BME280;20879;55.668;37.858;2022-09-27T00:30:22;99452.09;;;4.15;100.00
34674;BME280;20879;55.668;37.858;2022-09-27T00:32:58;99447.78;;;4.13;100.00
34674;BME280;20879;55.668;37.858;2022-09-27T00:35:27;99452.09;;;4.20;100.00
34674;BME280;20879;55.668;37.858;2022-09-27T00:37:56;99447.06;;;4.28;100.00
34674;BME280;20879;55.668;37.858;2022-09-27T00:40:27;99446.16;;;4.23;100.00
34674;BME280;20879;55.668;37.858;2022-09-27T00:43:01;99451.22;;;4.12;100.00
34674;BME280;20879;55.668;37.858;2022-09-27T00:45:42;99446.06;;;4.09;100.00
34674;BME280;20879;55.668;37.858;2022-09-27T00:48:24;99448.56;;;4.02;100.00
34674;BME280;20879;55.668;37.858;2022-09-27T00:51:04;99458.84;;;4.04;100.00
34674;BME280;20879;55.668;37.858;2022-09-27T00:53:38;99455.44;;;4.08;100.00
34674;BME280;20879;55.668;37.858;2022-09-27T00:56:16;99438.34;;;4.04;100.00
34674;BME280;20879;55.668;37.858;2022-09-27T00:58:55;99453.78;;;4.13;100.00
34674;BME280;20879;55.668;37.858;2022-09-27T01:01:27;99456.28;;;4.04;100.00
34674;BME280;20879;55.668;37.858;2022-09-27T01:04:00;99455.34;;;3.93;100.00
34674;BME280;20879;55.668;37.858;2022-09-27T01:06:40;99451.06;;;3.90;100.00
34674;BME280;20879;55.668;37.858;2022-09-27T01:09:10;99461.13;;;3.70;100.00
34674;BME280;20879;55.668;37.858;2022-09-27T01:11:44;99466.41;;;3.89;100.00
34674;BME280;20879;55.668;37.858;2022-09-27T01:14:36;99459.56;;;3.88;100.00
34674;BME280;20879;55.668;37.858;2022-09-27T01:17:21;99461.34;;;3.98;100.00
34674;BME280;20879;55.668;37.858;2022-09-27T01:20:22;99463.06;;;3.97;100.00
34674;BME280;20879;55.668;37.858;2022-09-27T01:23:28;99463.88;;;3.92;100.00
34674;BME280;20879;55.668;37.858;2022-09-27T01:26:10;99464.66;;;3.83;100.00
34674;BME280;20879;55.668;37.858;2022-09-27T01:28:56;99467.22;;;3.81;100.00
34674;BME280;20879;55.668;37.858;2022-09-27T01:31:46;99472.31;;;3.78;100.00
34674;BME280;20879;55.668;37.858;2022-09-27T01:34:22;99458.66;;;3.79;100.00
34674;BME280;20879;55.668;37.858;2022-09-27T01:37:04;99441.59;;;3.80;100.00
34674;BME280;20879;55.668;37.858;2022-09-27T01:39:37;99449.41;;;3.97;100.00
34674;BME280;20879;55.668;37.858;2022-09-27T01:42:30;99450.28;;;3.99;100.00
34674;BME280;20879;55.668;37.858;2022-09-27T01:45:10;99450.19;;;3.88;100.00
34674;BME280;20879;55.668;37.858;2022-09-27T01:47:59;99447.56;;;3.83;100.00
34674;BME280;20879;55.668;37.858;2022-09-27T01:51:07;99453.59;;;3.85;100.00
34674;BME280;20879;55.668;37.858;2022-09-27T01:53:40;99455.19;;;3.74;100.00
34674;BME280;20879;55.668;37.858;2022-09-27T01:56:31;99463.63;;;3.61;100.00
34674;BME280;20879;55.668;37.858;2022-09-27T01:59:14;99451.66;;;3.60;100.00
34674;BME280;20879;55.668;37.858;2022-09-27T02:01:57;99448.25;;;3.58;100.00
34674;BME280;20879;55.668;37.858;2022-09-27T02:04:41;99447.44;;;3.62;100.00
34674;BME280;20879;55.668;37.858;2022-09-27T02:07:22;99446.53;;;3.60;100.00
34674;BME280;20879;55.668;37.858;2022-09-27T02:09:56;99441.28;;;3.44;100.00
34674;BME280;20879;55.668;37.858;2022-09-27T02:12:48;99443.88;;;3.46;100.00
34674;BME280;20879;55.668;37.858;2022-09-27T02:15:20;99454.06;;;3.41;100.00
34674;BME280;20879;55.668;37.858;2022-09-27T02:18:04;99437.78;;;3.36;100.00
34674;BME280;20879;55.668;37.858;2022-09-27T02:20:49;99456.72;;;3.50;100.00
34674;BME280;20879;55.668;37.858;2022-09-27T02:23:22;99448.16;;;3.48;100.00
34674;BME280;20879;55.668;37.858;2022-09-27T02:26:07;99457.50;;;3.45;100.00
34674;BME280;20879;55.668;37.858;2022-09-27T02:28:42;99464.25;;;3.37;100.00
34674;BME280;20879;55.668;37.858;2022-09-27T02:31:22;99441.06;;;3.20;100.00
34674;BME280;20879;55.668;37.858;2022-09-27T02:33:55;99463.28;;;3.24;100.00
34674;BME280;20879;55.668;37.858;2022-09-27T02:36:29;99459.81;;;3.20;100.00
34674;BME280;20879;55.668;37.858;2022-09-27T02:39:04;99465.00;;;3.28;100.00
34674;BME280;20879;55.668;37.858;2022-09-27T02:41:33;99465.84;;;3.24;100.00
34674;BME280;20879;55.668;37.858;2022-09-27T02:44:05;99459.81;;;3.22;100.00
34674;BME280;20879;55.668;37.858;2022-09-27T02:47:02;99465.06;;;3.32;100.00
34674;BME280;20879;55.668;37.858;2022-09-27T02:49:45;99463.34;;;3.30;100.00
34674;BME280;20879;55.668;37.858;2022-09-27T02:52:46;99472.53;;;3.14;100.00
34674;BME280;20879;55.668;37.858;2022-09-27T02:55:20;99464.75;;;3.02;100.00
34674;BME280;20879;55.668;37.858;2022-09-27T02:58:10;99467.22;;;2.97;100.00
34674;BME280;20879;55.668;37.858;2022-09-27T03:01:25;99471.41;;;2.89;100.00
34674;BME280;20879;55.668;37.858;2022-09-27T03:04:10;99464.50;;;2.82;100.00
34674;BME280;20879;55.668;37.858;2022-09-27T03:06:44;99463.50;;;2.70;100.00
34674;BME280;20879;55.668;37.858;2022-09-27T03:09:24;99474.66;;;2.75;100.00
34674;BME280;20879;55.668;37.858;2022-09-27T03:11:56;99469.41;;;2.66;100.00
34674;BME280;20879;55.668;37.858;2022-09-27T03:14:25;99466.78;;;2.58;100.00
34674;BME280;20879;55.668;37.858;2022-09-27T03:17:05;99474.47;;;2.60;100.00
34674;BME280;20879;55.668;37.858;2022-09-27T03:20:10;99473.66;;;2.62;100.00
34674;BME280;20879;55.668;37.858;2022-09-27T03:22:52;99471.09;;;2.64;100.00
34674;BME280;20879;55.668;37.858;2022-09-27T03:25:24;99484.69;;;2.61;100.00
34674;BME280;20879;55.668;37.858;2022-09-27T03:27:53;99477.88;;;2.62;100.00
34674;BME280;20879;55.668;37.858;2022-09-27T03:30:34;99482.94;;;2.59;100.00
34674;BME280;20879;55.668;37.858;2022-09-27T03:33:09;99479.53;;;2.57;100.00
34674;BME280;20879;55.668;37.858;2022-09-27T03:35:45;99464.13;;;2.51;100.00
34674;BME280;20879;55.668;37.858;2022-09-27T03:38:15;99477.97;;;2.67;100.00
34674;BME280;20879;55.668;37.858;2022-09-27T03:40:46;99471.19;;;2.70;100.00
34674;BME280;20879;55.668;37.858;2022-09-27T03:43:21;99471.25;;;2.78;100.00
34674;BME280;20879;55.668;37.858;2022-09-27T03:45:57;99484.19;;;2.87;100.00
34674;BME280;20879;55.668;37.858;2022-09-27T03:48:27;99476.53;;;2.89;100.00
34674;BME280;20879;55.668;37.858;2022-09-27T03:51:02;99484.28;;;2.96;100.00
34674;BME280;20879;55.668;37.858;2022-09-27T03:53:32;99486.84;;;2.98;100.00
34674;BME280;20879;55.668;37.858;2022-09-27T03:56:04;99486.00;;;2.97;100.00
34674;BME280;20879;55.668;37.858;2022-09-27T03:58:33;99476.56;;;2.92;100.00
34674;BME280;20879;55.668;37.858;2022-09-27T04:01:03;99486.84;;;2.98;100.00
34674;BME280;20879;55.668;37.858;2022-09-27T04:03:34;99479.19;;;2.98;100.00
34674;BME280;20879;55.668;37.858;2022-09-27T04:06:07;99490.28;;;3.00;100.00
34674;BME280;20879;55.668;37.858;2022-09-27T04:08:43;99493.78;;;3.05;100.00
34674;BME280;20879;55.668;37.858;2022-09-27T04:11:15;99492.94;;;3.08;100.00
34674;BME280;20879;55.668;37.858;2022-09-27T04:13:46;99495.53;;;3.09;100.00
34674;BME280;20879;55.668;37.858;2022-09-27T04:16:17;99487.00;;;3.10;100.00
34674;BME280;20879;55.668;37.858;2022-09-27T04:18:57;99493.81;;;3.10;100.00
34674;BME280;20879;55.668;37.858;2022-09-27T04:21:45;99488.72;;;3.11;100.00
34674;BME280;20879;55.668;37.858;2022-09-27T04:24:21;99497.34;;;3.18;100.00
34674;BME280;20879;55.668;37.858;2022-09-27T04:27:12;99499.97;;;3.26;100.00
34674;BME280;20879;55.668;37.858;2022-09-27T04:29:43;99497.44;;;3.29;100.00
34674;BME280;20879;55.668;37.858;2022-09-27T04:32:33;99497.47;;;3.32;100.00
34674;BME280;20879;55.668;37.858;2022-09-27T04:35:27;99492.34;;;3.32;100.00
34674;BME280;20879;55.668;37.858;2022-09-27T04:38:09;99493.28;;;3.40;100.00
34674;BME280;20879;55.668;37.858;2022-09-27T04:40:39;99501.09;;;3.53;100.00
34674;BME280;20879;55.668;37.858;2022-09-27T04:43:11;99500.34;;;3.63;100.00
34674;BME280;20879;55.668;37.858;2022-09-27T04:45:42;99497.88;;;3.72;100.00
34674;BME280;20879;55.668;37.858;2022-09-27T04:48:11;99504.09;;;4.03;100.00
34674;BME280;20879;55.668;37.858;2022-09-27T04:50:47;99496.56;;;4.24;100.00
34674;BME280;20879;55.668;37.858;2022-09-27T04:53:23;99500.91;;;4.34;100.00
34674;BME280;20879;55.668;37.858;2022-09-27T04:55:52;99503.50;;;4.38;100.00
34674;BME280;20879;55.668;37.858;2022-09-27T04:58:25;99507.00;;;4.53;100.00
34674;BME280;20879;55.668;37.858;2022-09-27T05:01:01;99505.38;;;4.66;100.00
34674;BME280;20879;55.668;37.858;2022-09-27T05:03:56;99502.88;;;4.80;100.00
34674;BME280;20879;55.668;37.858;2022-09-27T05:06:27;99506.34;;;4.89;100.00
34674;BME280;20879;55.668;37.858;2022-09-27T05:09:04;99507.25;;;5.01;100.00
34674;BME280;20879;55.668;37.858;2022-09-27T05:11:46;99500.44;;;5.07;100.00
34674;BME280;20879;55.668;37.858;2022-09-27T05:14:17;99499.50;;;4.96;100.00
34674;BME280;20879;55.668;37.858;2022-09-27T05:16:56;99503.81;;;5.05;100.00
34674;BME280;20879;55.668;37.858;2022-09-27T05:19:44;99499.50;;;4.88;100.00
34674;BME280;20879;55.668;37.858;2022-09-27T05:22:26;99488.34;;;4.80;100.00
34674;BME280;20879;55.668;37.858;2022-09-27T05:25:00;99497.81;;;4.95;100.00
34674;BME280;20879;55.668;37.858;2022-09-27T05:27:29;99498.66;;;4.93;100.00
34674;BME280;20879;55.668;37.858;2022-09-27T05:30:00;99470.41;;;4.82;100.00
34674;BME280;20879;55.668;37.858;2022-09-27T05:32:39;99503.00;;;5.11;100.00
34674;BME280;20879;55.668;37.858;2022-09-27T05:35:26;99491.06;;;5.19;100.00
34674;BME280;20879;55.668;37.858;2022-09-27T05:37:58;99476.50;;;5.16;100.00
34674;BME280;20879;55.668;37.858;2022-09-27T05:40:30;99488.50;;;5.33;100.00
34674;BME280;20879;55.668;37.858;2022-09-27T05:43:08;99487.69;;;5.40;100.00
34674;BME280;20879;55.668;37.858;2022-09-27T05:45:40;99486.00;;;5.50;100.00
34674;BME280;20879;55.668;37.858;2022-09-27T05:48:11;99471.44;;;5.50;100.00
34674;BME280;20879;55.668;37.858;2022-09-27T05:50:51;99480.88;;;5.70;100.00
34674;BME280;20879;55.668;37.858;2022-09-27T05:53:21;99482.59;;;5.82;100.00
34674;BME280;20879;55.668;37.858;2022-09-27T05:55:51;99480.03;;;5.92;100.00
34674;BME280;20879;55.668;37.858;2022-09-27T05:58:28;99471.50;;;6.12;100.00
34674;BME280;20879;55.668;37.858;2022-09-27T06:01:13;99470.59;;;6.39;100.00
34674;BME280;20879;55.668;37.858;2022-09-27T06:04:05;99471.41;;;6.55;100.00
34674;BME280;20879;55.668;37.858;2022-09-27T06:07:12;99437.13;;;6.45;100.00
34674;BME280;20879;55.668;37.858;2022-09-27T06:09:42;99469.59;;;6.79;100.00
34674;BME280;20879;55.668;37.858;2022-09-27T06:12:19;99472.13;;;6.93;100.00
34674;BME280;20879;55.668;37.858;2022-09-27T06:14:48;99469.53;;;7.00;100.00
34674;BME280;20879;55.668;37.858;2022-09-27T06:17:35;99472.03;;;7.13;100.00
34674;BME280;20879;55.668;37.858;2022-09-27T06:20:19;99468.53;;;7.23;100.00
34674;BME280;20879;55.668;37.858;2022-09-27T06:22:53;99475.34;;;7.38;100.00
34674;BME280;20879;55.668;37.858;2022-09-27T06:25:22;99470.03;;;7.60;100.00
34674;BME280;20879;55.668;37.858;2022-09-27T06:28:12;99469.66;;;8.06;100.00
34674;BME280;20879;55.668;37.858;2022-09-27T06:30:45;99459.25;;;8.15;100.00
34674;BME280;20879;55.668;37.858;2022-09-27T06:33:26;99462.78;;;8.07;100.00
34674;BME280;20879;55.668;37.858;2022-09-27T06:36:04;99459.41;;;8.01;100.00
34674;BME280;20879;55.668;37.858;2022-09-27T06:38:35;99463.59;;;8.12;100.00
34674;BME280;20879;55.668;37.858;2022-09-27T06:41:15;99444.59;;;8.22;100.00
34674;BME280;20879;55.668;37.858;2022-09-27T06:43:55;99463.34;;;8.39;99.39
34674;BME280;20879;55.668;37.858;2022-09-27T06:46:43;99463.19;;;8.55;98.75
34674;BME280;20879;55.668;37.858;2022-09-27T06:49:49;99461.31;;;8.69;98.34
34674;BME280;20879;55.668;37.858;2022-09-27T06:52:18;99464.59;;;8.84;98.23
34674;BME280;20879;55.668;37.858;2022-09-27T06:54:49;99461.69;;;9.10;97.51
34674;BME280;20879;55.668;37.858;2022-09-27T06:57:23;99469.06;;;9.36;96.45
34674;BME280;20879;55.668;37.858;2022-09-27T07:00:12;99460.25;;;9.51;95.01
34674;BME280;20879;55.668;37.858;2022-09-27T07:03:18;99466.31;;;9.47;94.33
34674;BME280;20879;55.668;37.858;2022-09-27T07:06:13;99457.69;;;9.48;93.63
34674;BME280;20879;55.668;37.858;2022-09-27T07:08:49;99466.31;;;9.47;93.83
34674;BME280;20879;55.668;37.858;2022-09-27T07:11:21;99460.34;;;9.43;93.10
34674;BME280;20879;55.668;37.858;2022-09-27T07:13:52;99455.50;;;9.22;93.81
34674;BME280;20879;55.668;37.858;2022-09-27T07:16:22;99457.28;;;9.18;93.69
34674;BME280;20879;55.668;37.858;2022-09-27T07:18:52;99459.03;;;9.15;93.53
34674;BME280;20879;55.668;37.858;2022-09-27T07:21:29;99464.97;;;9.21;93.22
34674;BME280;20879;55.668;37.858;2022-09-27T07:24:04;99460.53;;;9.30;93.51
34674;BME280;20879;55.668;37.858;2022-09-27T07:26:33;99467.25;;;9.44;92.66
34674;BME280;20879;55.668;37.858;2022-09-27T07:29:05;99471.13;;;9.72;91.01
34674;BME280;20879;55.668;37.858;2022-09-27T07:31:35;99468.72;;;9.61;91.58
34674;BME280;20879;55.668;37.858;2022-09-27T07:34:10;99477.19;;;9.69;90.94
34674;BME280;20879;55.668;37.858;2022-09-27T07:36:43;99455.47;;;9.83;90.18
34674;BME280;20879;55.668;37.858;2022-09-27T07:39:13;99452.19;;;9.71;90.24
34674;BME280;20879;55.668;37.858;2022-09-27T07:41:44;99465.38;;;9.53;90.20
34674;BME280;20879;55.668;37.858;2022-09-27T07:44:13;99462.03;;;9.48;90.88
34674;BME280;20879;55.668;37.858;2022-09-27T07:47:07;99468.13;;;9.42;90.17
34674;BME280;20879;55.668;37.858;2022-09-27T07:49:59;99465.63;;;9.37;90.23
34674;BME280;20879;55.668;37.858;2022-09-27T07:52:43;99465.72;;;9.30;90.18
34674;BME280;20879;55.668;37.858;2022-09-27T07:55:35;99469.41;;;9.12;90.01
34674;BME280;20879;55.668;37.858;2022-09-27T07:58:11;99469.56;;;8.99;90.85
34674;BME280;20879;55.668;37.858;2022-09-27T08:00:47;99464.31;;;9.05;89.94
34674;BME280;20879;55.668;37.858;2022-09-27T08:03:17;99467.69;;;9.10;90.41
34674;BME280;20879;55.668;37.858;2022-09-27T08:05:47;99466.03;;;9.08;90.41
34674;BME280;20879;55.668;37.858;2022-09-27T08:08:18;99472.03;;;9.08;90.29
34674;BME280;20879;55.668;37.858;2022-09-27T08:11:01;99467.59;;;9.20;90.07
34674;BME280;20879;55.668;37.858;2022-09-27T08:13:41;99460.69;;;9.19;89.56
34674;BME280;20879;55.668;37.858;2022-09-27T08:16:10;99459.75;;;9.26;89.38
34674;BME280;20879;55.668;37.858;2022-09-27T08:19:06;99446.91;;;9.21;88.84
34674;BME280;20879;55.668;37.858;2022-09-27T08:22:00;99462.25;;;9.31;88.34
34674;BME280;20879;55.668;37.858;2022-09-27T08:24:43;99459.69;;;9.29;88.54
34674;BME280;20879;55.668;37.858;2022-09-27T08:27:20;99466.88;;;9.07;88.38
34674;BME280;20879;55.668;37.858;2022-09-27T08:29:52;99464.44;;;8.96;88.86
34674;BME280;20879;55.668;37.858;2022-09-27T08:32:22;99449.28;;;8.70;89.21
34674;BME280;20879;55.668;37.858;2022-09-27T08:34:53;99464.53;;;8.87;90.01
34674;BME280;20879;55.668;37.858;2022-09-27T08:37:23;99458.97;;;9.18;89.23
34674;BME280;20879;55.668;37.858;2022-09-27T08:39:54;99447.97;;;9.64;87.96
34674;BME280;20879;55.668;37.858;2022-09-27T08:42:39;99452.88;;;9.83;86.18
34674;BME280;20879;55.668;37.858;2022-09-27T08:45:21;99463.59;;;10.11;85.06
34674;BME280;20879;55.668;37.858;2022-09-27T08:47:54;99459.66;;;10.41;84.63
34674;BME280;20879;55.668;37.858;2022-09-27T08:50:28;99453.31;;;11.00;82.20
34674;BME280;20879;55.668;37.858;2022-09-27T08:53:18;99456.91;;;11.69;78.87
34674;BME280;20879;55.668;37.858;2022-09-27T08:55:52;99446.25;;;11.82;75.78
34674;BME280;20879;55.668;37.858;2022-09-27T08:58:28;99451.16;;;11.94;76.17
34674;BME280;20879;55.668;37.858;2022-09-27T09:01:05;99448.06;;;12.14;74.89
34674;BME280;20879;55.668;37.858;2022-09-27T09:03:44;99447.09;;;12.51;72.18
34674;BME280;20879;55.668;37.858;2022-09-27T09:06:19;99447.22;;;12.47;72.25
34674;BME280;20879;55.668;37.858;2022-09-27T09:09:01;99451.25;;;12.26;71.80
34674;BME280;20879;55.668;37.858;2022-09-27T09:11:45;99454.22;;;12.10;71.45
34674;BME280;20879;55.668;37.858;2022-09-27T09:14:44;99454.94;;;12.17;71.01
34674;BME280;20879;55.668;37.858;2022-09-27T09:17:26;99453.56;;;12.36;70.56
34674;BME280;20879;55.668;37.858;2022-09-27T09:20:35;99452.53;;;12.73;69.72
34674;BME280;20879;55.668;37.858;2022-09-27T09:23:32;99453.50;;;13.01;67.70
34674;BME280;20879;55.668;37.858;2022-09-27T09:26:10;99459.31;;;13.09;66.30
34674;BME280;20879;55.668;37.858;2022-09-27T09:29:01;99452.44;;;13.36;64.19
34674;BME280;20879;55.668;37.858;2022-09-27T09:31:39;99452.13;;;13.17;63.71
34674;BME280;20879;55.668;37.858;2022-09-27T09:34:19;99436.66;;;12.84;63.92
34674;BME280;20879;55.668;37.858;2022-09-27T09:36:54;99446.16;;;12.84;64.23
34674;BME280;20879;55.668;37.858;2022-09-27T09:39:28;99439.75;;;12.96;63.94
34674;BME280;20879;55.668;37.858;2022-09-27T09:42:10;99436.53;;;13.17;62.39
34674;BME280;20879;55.668;37.858;2022-09-27T09:44:50;99436.75;;;13.68;61.14
34674;BME280;20879;55.668;37.858;2022-09-27T09:47:30;99431.41;;;13.97;59.65
34674;BME280;20879;55.668;37.858;2022-09-27T09:50:15;99438.72;;;13.59;59.09
34674;BME280;20879;55.668;37.858;2022-09-27T09:53:01;99432.75;;;13.27;60.62
34674;BME280;20879;55.668;37.858;2022-09-27T09:55:34;99436.34;;;13.23;60.27
34674;BME280;20879;55.668;37.858;2022-09-27T09:58:15;99442.50;;;13.21;60.79
34674;BME280;20879;55.668;37.858;2022-09-27T10:00:53;99430.69;;;13.10;60.97
34674;BME280;20879;55.668;37.858;2022-09-27T10:03:29;99429.63;;;13.16;60.68
34674;BME280;20879;55.668;37.858;2022-09-27T10:06:05;99424.41;;;13.16;60.52
34674;BME280;20879;55.668;37.858;2022-09-27T10:08:34;99429.38;;;13.25;59.86
34674;BME280;20879;55.668;37.858;2022-09-27T10:11:34;99436.53;;;13.47;57.63
34674;BME280;20879;55.668;37.858;2022-09-27T10:14:13;99417.88;;;13.61;57.41
34674;BME280;20879;55.668;37.858;2022-09-27T10:16:56;99420.69;;;13.55;57.12
34674;BME280;20879;55.668;37.858;2022-09-27T10:19:33;99419.91;;;13.51;58.73
34674;BME280;20879;55.668;37.858;2022-09-27T10:22:12;99419.66;;;13.31;59.64
34674;BME280;20879;55.668;37.858;2022-09-27T10:24:54;99411.97;;;12.99;60.47
34674;BME280;20879;55.668;37.858;2022-09-27T10:27:40;99419.88;;;12.33;62.22
34674;BME280;20879;55.668;37.858;2022-09-27T10:30:26;99418.69;;;12.12;63.64
34674;BME280;20879;55.668;37.858;2022-09-27T10:33:04;99414.00;;;11.94;63.65
34674;BME280;20879;55.668;37.858;2022-09-27T10:35:46;99392.00;;;11.72;63.56
34674;BME280;20879;55.668;37.858;2022-09-27T10:38:29;99410.13;;;11.74;64.21
34674;BME280;20879;55.668;37.858;2022-09-27T10:41:16;99416.22;;;11.73;64.03
34674;BME280;20879;55.668;37.858;2022-09-27T10:43:55;99396.00;;;11.51;64.44
34674;BME280;20879;55.668;37.858;2022-09-27T10:46:32;99398.97;;;11.34;64.70
34674;BME280;20879;55.668;37.858;2022-09-27T10:49:34;99411.97;;;11.33;65.78
34674;BME280;20879;55.668;37.858;2022-09-27T10:52:15;99410.53;;;11.19;65.45
34674;BME280;20879;55.668;37.858;2022-09-27T10:54:53;99398.66;;;11.11;65.92
34674;BME280;20879;55.668;37.858;2022-09-27T10:57:25;99408.03;;;11.16;66.09
34674;BME280;20879;55.668;37.858;2022-09-27T10:59:58;99403.53;;;11.25;66.20
34674;BME280;20879;55.668;37.858;2022-09-27T11:02:32;99402.63;;;11.26;65.18
34674;BME280;20879;55.668;37.858;2022-09-27T11:05:11;99393.25;;;11.22;64.90
34674;BME280;20879;55.668;37.858;2022-09-27T11:07:49;99375.06;;;11.23;64.74
34674;BME280;20879;55.668;37.858;2022-09-27T11:10:24;99391.88;;;11.43;64.46
34674;BME280;20879;55.668;37.858;2022-09-27T11:13:12;99391.13;;;11.39;63.85
34674;BME280;20879;55.668;37.858;2022-09-27T11:15:56;99392.81;;;11.39;64.37
34674;BME280;20879;55.668;37.858;2022-09-27T11:18:39;99386.88;;;11.35;63.70
34674;BME280;20879;55.668;37.858;2022-09-27T11:21:23;99378.88;;;11.44;63.52
34674;BME280;20879;55.668;37.858;2022-09-27T11:27:08;99380.16;;;11.62;63.62
34674;BME280;20879;55.668;37.858;2022-09-27T11:29:56;99366.66;;;11.84;62.88
34674;BME280;20879;55.668;37.858;2022-09-27T11:33:03;99360.06;;;12.06;62.34
34674;BME280;20879;55.668;37.858;2022-09-27T11:35:52;99371.56;;;12.28;61.41
34674;BME280;20879;55.668;37.858;2022-09-27T11:38:30;99355.06;;;12.60;61.13
34674;BME280;20879;55.668;37.858;2022-09-27T11:41:33;99358.41;;;12.65;61.47
34674;BME280;20879;55.668;37.858;2022-09-27T11:44:29;99332.97;;;12.47;62.16
34674;BME280;20879;55.668;37.858;2022-09-27T11:47:15;99315.63;;;12.47;62.38
34674;BME280;20879;55.668;37.858;2022-09-27T11:53:13;99338.63;;;11.98;62.76
34674;BME280;20879;55.668;37.858;2022-09-27T11:55:55;99344.47;;;11.72;63.48
34674;BME280;20879;55.668;37.858;2022-09-27T11:58:36;99355.34;;;11.52;64.17
34674;BME280;20879;55.668;37.858;2022-09-27T12:01:21;99354.09;;;11.32;64.07
34674;BME280;20879;55.668;37.858;2022-09-27T12:04:17;99356.06;;;11.23;65.25
34674;BME280;20879;55.668;37.858;2022-09-27T12:09:36;99367.59;;;11.09;64.55
34674;BME280;20879;55.668;37.858;2022-09-27T12:12:13;99356.53;;;11.02;64.36
34674;BME280;20879;55.668;37.858;2022-09-27T12:14:49;99349.75;;;10.97;64.48
34674;BME280;20879;55.668;37.858;2022-09-27T12:17:23;99340.13;;;11.02;64.56
34674;BME280;20879;55.668;37.858;2022-09-27T12:20:02;99338.06;;;11.16;63.52
34674;BME280;20879;55.668;37.858;2022-09-27T12:22:55;99323.31;;;11.20;63.63
34674;BME280;20879;55.668;37.858;2022-09-27T12:25:36;99331.38;;;11.44;62.56
34674;BME280;20879;55.668;37.858;2022-09-27T12:28:25;99326.25;;;11.41;62.50
34674;BME280;20879;55.668;37.858;2022-09-27T12:31:04;99328.03;;;11.39;63.04
34674;BME280;20879;55.668;37.858;2022-09-27T12:34:05;99342.75;;;11.38;63.74
34674;BME280;20879;55.668;37.858;2022-09-27T12:36:49;99322.28;;;11.26;63.82
34674;BME280;20879;55.668;37.858;2022-09-27T12:39:24;99317.50;;;11.10;64.39
34674;BME280;20879;55.668;37.858;2022-09-27T12:42:18;99327.16;;;11.02;64.99
34674;BME280;20879;55.668;37.858;2022-09-27T12:44:51;99306.66;;;10.93;65.12
34674;BME280;20879;55.668;37.858;2022-09-27T12:47:37;99326.41;;;10.98;65.35
34674;BME280;20879;55.668;37.858;2022-09-27T12:56:44;99326.84;;;10.78;65.65
34674;BME280;20879;55.668;37.858;2022-09-27T12:59:43;99320.03;;;10.74;66.52
34674;BME280;20879;55.668;37.858;2022-09-27T13:02:36;99326.88;;;10.77;67.33
34674;BME280;20879;55.668;37.858;2022-09-27T13:05:34;99327.59;;;10.83;66.43
34674;BME280;20879;55.668;37.858;2022-09-27T13:11:13;99322.13;;;10.96;66.81
34674;BME280;20879;55.668;37.858;2022-09-27T13:13:46;99316.72;;;11.05;66.99
34674;BME280;20879;55.668;37.858;2022-09-27T13:16:15;99329.22;;;11.25;66.78
34674;BME280;20879;55.668;37.858;2022-09-27T13:18:53;99334.13;;;11.36;66.03
34674;BME280;20879;55.668;37.858;2022-09-27T13:21:55;99319.03;;;11.52;66.13
34674;BME280;20879;55.668;37.858;2022-09-27T13:24:47;99305.13;;;11.56;65.86
34674;BME280;20879;55.668;37.858;2022-09-27T13:27:49;99298.75;;;11.68;65.14
34674;BME280;20879;55.668;37.858;2022-09-27T13:30:47;99309.75;;;11.78;64.68
34674;BME280;20879;55.668;37.858;2022-09-27T13:33:33;99300.03;;;11.86;64.69
34674;BME280;20879;55.668;37.858;2022-09-27T13:36:25;99311.97;;;11.92;64.69
34674;BME280;20879;55.668;37.858;2022-09-27T13:39:17;99313.41;;;12.03;64.78
34674;BME280;20879;55.668;37.858;2022-09-27T13:42:27;99307.31;;;12.04;65.25
34674;BME280;20879;55.668;37.858;2022-09-27T13:45:19;99297.81;;;12.03;65.26
34674;BME280;20879;55.668;37.858;2022-09-27T13:47:55;99292.91;;;11.94;64.90
34674;BME280;20879;55.668;37.858;2022-09-27T13:50:38;99313.75;;;11.89;65.02
34674;BME280;20879;55.668;37.858;2022-09-27T13:53:22;99300.00;;;11.87;65.19
34674;BME280;20879;55.668;37.858;2022-09-27T13:55:53;99304.25;;;11.88;65.20
34674;BME280;20879;55.668;37.858;2022-09-27T13:58:51;99301.78;;;11.84;65.89
34674;BME280;20879;55.668;37.858;2022-09-27T14:01:47;99305.50;;;11.75;65.60
34674;BME280;20879;55.668;37.858;2022-09-27T14:04:25;99300.56;;;11.66;66.20
34674;BME280;20879;55.668;37.858;2022-09-27T14:06:57;99302.50;;;11.58;66.84
34674;BME280;20879;55.668;37.858;2022-09-27T14:09:31;99301.69;;;11.56;66.74
34674;BME280;20879;55.668;37.858;2022-09-27T14:12:21;99300.75;;;11.58;66.72
34674;BME280;20879;55.668;37.858;2022-09-27T14:14:54;99299.09;;;11.56;67.17
34674;BME280;20879;55.668;37.858;2022-09-27T14:17:31;99286.13;;;11.56;67.31